Lubbock Preston Smith International Airport
KLBB : now visible

Airfield :











YOU CAN JOIN US ON...

 
LOGIN :

Register | Disclaimer

   EN    FR    IT 

 









Legend :    VFR   Marginal VFR   IFR   Intensive IFR   Very Intensive IFR
Visi :
Ceiling :
>= 8 km
>= 3000ft
5 to 8 km
1000 to 3000 ft
1500m to 5 km
500 to 1000 ft
800 to 1500m
200 to 500 ft
< 800m
< 200 ft
Symbols :   Thunderstorms  Fog  Heavy snow  Heavy precipitations  Wind > 20 kt






- Airport Elevation : 3282 ft
- IATA code : LBB


KLBB - Lubbock Preston Smith International

CURRENT METAR :
  • 272353Z 18014G25KT 10SM CLR 34/07 A2992 RMK AO2 PK WND 17026/2323 SLP081 T03390067 10350 20300 56026

EXPIRED METARs :
  • 272253Z 21018G25KT 10SM CLR 34/06 A2995 RMK AO2 PK WND 19027/2232 SLP089 T03440056
  • 272153Z 19017G24KT 10SM CLR 34/06 A2997 RMK AO2 PK WND 18029/2112 SLP097 T03440061

TAF KLBB
Valid from the 28 at 00:00 until the 29 at 00:00 UTC


272333Z 2800/2824 18015KT P6SM SKC
FM280900 20015KT P6SM SKC WS020/21045KT
FM281300 22015KT P6SM FEW250
KZFW FIR / North America



MET'MAP, your aeronautical weather chart ! - Copyright ORBIFLY December 2007 - Disclaimer

ORBIFLY MET'MAP TEAM :

Programming & Development : Alexandra Zaïnal
Original concept : Baudouin d'Aumeries
Technical & hardware support : Manuel Goepfert
Assistance : Marc-Olivier Méhu

Contact : metmap@orbifly.com




SOURCES & CREDITS :

   NOAA       Earth
Advisory